Time;durP1;ratioP1;P1;durP2;ratioP2;P2;SDS_P1;SDS_P2;PMS_P1;PMS_P2;Temp;Humidity;BMP_temperature;BMP_pressure;BME280_temperature;BME280_humidity;BME280_pressure;Samples;Min_cycle;Max_cycle;Signal;HPM_P1;HPM_P2
2023/05/29 00:00:17;;;;;;;7.77;3.67;;;15.70;95.70;;;;;;4947861;28;20213;-66
2023/05/29 00:02:44;;;;;;;11.13;4.10;;;15.70;95.70;;;;;;4947437;28;20620;-64
2023/05/29 00:05:11;;;;;;;5.37;3.70;;;15.60;95.70;;;;;;4949578;28;20210;-64
2023/05/29 00:07:37;;;;;;;9.93;3.97;;;15.60;95.90;;;;;;4945604;28;20206;-64
2023/05/29 00:10:04;;;;;;;7.47;3.70;;;15.40;96.30;;;;;;4951409;28;20210;-62
2023/05/29 00:12:29;;;;;;;6.53;3.87;;;15.40;96.10;;;;;;4951226;28;20290;-64
2023/05/29 00:14:55;;;;;;;8.93;3.57;;;15.50;96.20;;;;;;4944982;28;20286;-64
2023/05/29 00:17:21;;;;;;;11.17;4.40;;;15.30;96.30;;;;;;4948480;28;20260;-64
2023/05/29 00:19:46;;;;;;;9.43;4.20;;;15.30;96.60;;;;;;4952678;28;20249;-63
2023/05/29 00:22:12;;;;;;;6.00;3.73;;;15.30;96.60;;;;;;4947683;28;20221;-64
2023/05/29 00:24:38;;;;;;;5.40;4.07;;;15.20;96.80;;;;;;4945809;28;20286;-65
2023/05/29 00:27:03;;;;;;;5.13;3.40;;;15.20;96.70;;;;;;4947688;28;20218;-64
2023/05/29 00:29:29;;;;;;;4.37;2.97;;;15.30;96.50;;;;;;4949493;28;20594;-64
2023/05/29 00:31:56;;;;;;;6.33;3.93;;;15.40;96.10;;;;;;4948809;28;20200;-64
2023/05/29 00:34:23;;;;;;;7.73;3.83;;;15.30;96.10;;;;;;4947949;28;20231;-64
2023/05/29 00:36:49;;;;;;;5.10;3.60;;;15.30;95.70;;;;;;4941768;28;20209;-62
2023/05/29 00:39:15;;;;;;;7.97;3.97;;;15.30;95.60;;;;;;4949031;28;20209;-62
2023/05/29 00:41:40;;;;;;;7.33;3.57;;;15.20;95.30;;;;;;4948279;28;20209;-63
2023/05/29 00:44:06;;;;;;;4.93;3.50;;;15.20;95.70;;;;;;4947991;28;20200;-63
2023/05/29 00:46:32;;;;;;;8.37;4.33;;;15.10;95.50;;;;;;4945368;28;20213;-63
2023/05/29 00:48:59;;;;;;;13.70;4.47;;;15.00;95.70;;;;;;4947569;28;20216;-63
2023/05/29 00:51:25;;;;;;;6.53;4.00;;;15.00;96.10;;;;;;4947468;28;20218;-62
2023/05/29 00:53:53;;;;;;;6.17;3.73;;;14.90;96.20;;;;;;4947967;28;20199;-62
2023/05/29 00:56:20;;;;;;;7.03;3.93;;;14.90;96.30;;;;;;4952203;28;20205;-62
2023/05/29 00:58:47;;;;;;;9.93;4.47;;;15.00;96.10;;;;;;4946347;28;20244;-62
2023/05/29 01:01:13;;;;;;;10.87;4.90;;;15.00;96.10;;;;;;4948334;28;20214;-62
2023/05/29 01:03:41;;;;;;;9.03;3.97;;;15.00;96.20;;;;;;4951199;28;20205;-63
2023/05/29 01:06:07;;;;;;;8.07;3.67;;;15.00;96.20;;;;;;4951225;28;20213;-63
2023/05/29 01:08:33;;;;;;;5.83;3.73;;;14.80;96.70;;;;;;4951621;28;20205;-64
2023/05/29 01:11:17;;;;;;;8.93;4.07;;;14.60;97.00;;;;;;4949494;28;20281;-61
2023/05/29 01:13:45;;;;;;;9.67;4.53;;;14.50;97.40;;;;;;4950837;28;20210;-64
2023/05/29 01:16:41;;;;;;;9.50;4.23;;;14.50;97.70;;;;;;4948800;28;20221;-64
2023/05/29 01:19:40;;;;;;;4.57;3.67;;;14.50;98.20;;;;;;4926516;28;20233;-63
2023/05/29 01:22:17;;;;;;;6.60;4.17;;;14.40;98.40;;;;;;4960253;28;20776;-64
2023/05/29 01:24:56;;;;;;;11.33;5.10;;;14.40;98.60;;;;;;4960217;28;20560;-63
2023/05/29 01:27:25;;;;;;;7.73;4.73;;;14.30;98.80;;;;;;4948410;28;20259;-63
2023/05/29 01:29:55;;;;;;;8.60;4.63;;;14.40;98.80;;;;;;4955302;28;20201;-65
2023/05/29 01:32:21;;;;;;;6.47;4.03;;;14.30;99.10;;;;;;4955976;28;20193;-63
2023/05/29 01:34:46;;;;;;;7.77;4.83;;;14.30;99.20;;;;;;4957620;28;20218;-62
2023/05/29 01:37:13;;;;;;;8.40;4.57;;;14.30;99.40;;;;;;4960041;28;20936;-62
2023/05/29 01:39:38;;;;;;;7.37;3.93;;;14.20;99.60;;;;;;4959773;28;20786;-62
2023/05/29 01:42:05;;;;;;;6.43;4.63;;;14.10;99.90;;;;;;4959619;28;20193;-61
2023/05/29 01:44:31;;;;;;;8.13;4.23;;;14.10;99.90;;;;;;4960069;28;20632;-67
2023/05/29 01:46:57;;;;;;;14.03;5.43;;;13.90;99.90;;;;;;4952096;28;20220;-66
2023/05/29 01:49:24;;;;;;;9.97;4.50;;;13.90;99.90;;;;;;4959997;28;20210;-61
2023/05/29 01:51:50;;;;;;;12.07;4.27;;;14.00;99.90;;;;;;4959794;28;20216;-66
2023/05/29 01:54:15;;;;;;;9.10;4.43;;;14.00;99.90;;;;;;4959708;28;20205;-62
2023/05/29 01:56:43;;;;;;;9.83;4.83;;;13.90;99.90;;;;;;4955273;28;20201;-63
2023/05/29 01:59:12;;;;;;;8.07;4.27;;;13.80;99.90;;;;;;4959561;28;20201;-63
2023/05/29 02:01:39;;;;;;;8.13;4.60;;;13.80;99.90;;;;;;4958952;28;20498;-63
2023/05/29 02:04:05;;;;;;;9.67;4.20;;;13.80;99.90;;;;;;4954287;28;20202;-63
2023/05/29 02:06:30;;;;;;;8.37;3.97;;;13.80;99.90;;;;;;4958599;28;20264;-62
2023/05/29 02:08:56;;;;;;;7.97;4.90;;;13.70;99.90;;;;;;4951400;28;20245;-61
2023/05/29 02:11:21;;;;;;;9.30;4.33;;;13.60;99.90;;;;;;4951970;28;20205;-62
2023/05/29 02:13:47;;;;;;;7.00;4.10;;;13.60;99.90;;;;;;4954465;28;20201;-63
2023/05/29 02:16:13;;;;;;;7.57;3.97;;;13.60;99.90;;;;;;4958847;28;20535;-62
2023/05/29 02:18:39;;;;;;;7.30;3.57;;;13.60;99.90;;;;;;4959291;28;20702;-62
2023/05/29 02:21:04;;;;;;;6.43;3.97;;;13.60;99.90;;;;;;4953885;28;20282;-62
2023/05/29 02:23:30;;;;;;;6.23;4.00;;;13.50;99.90;;;;;;4953086;28;20256;-63
2023/05/29 02:25:55;;;;;;;8.83;4.07;;;13.50;99.90;;;;;;4953863;28;20209;-62
2023/05/29 02:28:21;;;;;;;8.37;4.37;;;13.50;99.90;;;;;;4949659;28;20288;-62
2023/05/29 02:30:46;;;;;;;10.77;4.87;;;13.50;99.90;;;;;;4948141;28;20200;-62
2023/05/29 02:33:12;;;;;;;8.30;3.87;;;13.40;99.90;;;;;;4945797;28;20229;-62
2023/05/29 02:35:37;;;;;;;6.90;4.13;;;13.50;99.90;;;;;;4948050;28;20235;-63
2023/05/29 02:38:03;;;;;;;5.80;4.07;;;13.40;99.90;;;;;;4948888;28;20681;-63
2023/05/29 02:40:28;;;;;;;8.20;4.57;;;13.40;99.90;;;;;;4949100;28;20237;-63
2023/05/29 02:42:54;;;;;;;7.93;4.40;;;13.40;99.90;;;;;;4949359;28;20948;-63
2023/05/29 02:45:19;;;;;;;7.47;4.23;;;13.50;99.90;;;;;;4949065;28;20233;-63
2023/05/29 02:47:45;;;;;;;7.87;4.50;;;13.50;99.90;;;;;;4947470;28;20198;-63
2023/05/29 02:50:10;;;;;;;9.87;4.83;;;13.40;99.90;;;;;;4949688;28;20198;-63
2023/05/29 02:52:36;;;;;;;8.73;3.97;;;13.20;99.90;;;;;;4949815;28;20208;-63
2023/05/29 02:55:03;;;;;;;11.30;4.33;;;13.20;99.90;;;;;;4949858;28;20293;-63
2023/05/29 02:57:29;;;;;;;4.87;4.37;;;13.20;99.90;;;;;;4949874;28;20194;-63
2023/05/29 02:59:55;;;;;;;7.03;3.70;;;13.10;99.90;;;;;;4958288;28;20467;-63
2023/05/29 03:02:20;;;;;;;9.63;5.00;;;12.90;99.90;;;;;;4954567;28;21040;-63
2023/05/29 03:04:46;;;;;;;5.87;4.13;;;13.00;99.90;;;;;;4956649;28;20220;-62
2023/05/29 03:07:12;;;;;;;7.70;4.60;;;13.00;99.90;;;;;;4954405;28;20778;-62
2023/05/29 03:09:38;;;;;;;6.83;3.70;;;13.00;99.90;;;;;;4954180;28;20553;-63
2023/05/29 03:12:04;;;;;;;8.80;4.87;;;13.00;99.90;;;;;;4959162;28;20593;-63
2023/05/29 03:14:30;;;;;;;8.47;4.63;;;13.00;99.90;;;;;;4957502;28;20256;-62
2023/05/29 03:16:56;;;;;;;7.63;4.13;;;13.00;99.90;;;;;;4958474;28;20197;-62
2023/05/29 03:19:21;;;;;;;6.67;4.10;;;12.90;99.90;;;;;;4955290;28;20208;-62
2023/05/29 03:21:47;;;;;;;7.43;4.30;;;12.90;99.90;;;;;;4958850;28;20229;-62
2023/05/29 03:24:16;;;;;;;10.87;4.03;;;12.90;99.90;;;;;;4958483;28;20295;-62
2023/05/29 03:26:41;;;;;;;10.03;4.77;;;12.90;99.90;;;;;;4952133;28;20628;-63
2023/05/29 03:29:07;;;;;;;7.33;3.70;;;12.90;99.90;;;;;;4958068;28;20232;-62
2023/05/29 03:31:32;;;;;;;9.40;4.10;;;12.80;99.90;;;;;;4958577;28;20264;-62
2023/05/29 03:34:00;;;;;;;9.20;4.60;;;12.80;99.90;;;;;;4958143;28;20205;-62
2023/05/29 03:36:26;;;;;;;5.00;4.00;;;12.70;99.90;;;;;;4958499;28;20212;-62
2023/05/29 03:38:52;;;;;;;10.77;4.87;;;12.70;99.90;;;;;;4956798;28;20229;-62
2023/05/29 03:41:17;;;;;;;8.27;4.27;;;12.70;99.90;;;;;;4951321;28;20234;-63
2023/05/29 03:43:42;;;;;;;7.47;4.53;;;12.70;99.90;;;;;;4953268;28;20216;-63
2023/05/29 03:46:08;;;;;;;5.60;4.63;;;12.80;99.90;;;;;;4954445;28;20209;-63
2023/05/29 03:48:34;;;;;;;7.87;4.60;;;12.80;99.90;;;;;;4957865;28;20896;-66
2023/05/29 03:50:59;;;;;;;8.47;4.13;;;12.90;99.90;;;;;;4953190;28;20197;-63
2023/05/29 03:53:25;;;;;;;11.40;4.23;;;12.90;99.90;;;;;;4951985;28;20639;-63
2023/05/29 03:55:50;;;;;;;5.60;4.13;;;12.90;99.90;;;;;;4952437;28;20242;-73
2023/05/29 03:58:16;;;;;;;7.63;4.27;;;12.90;99.90;;;;;;4957870;28;20241;-63
2023/05/29 04:00:41;;;;;;;6.00;4.30;;;12.90;99.90;;;;;;4953135;28;20237;-63
2023/05/29 04:03:07;;;;;;;6.50;4.13;;;13.00;99.90;;;;;;4948529;28;20210;-63
2023/05/29 04:05:33;;;;;;;8.97;4.00;;;13.10;99.90;;;;;;4957850;28;20308;-63
2023/05/29 04:07:58;;;;;;;10.57;4.57;;;13.10;99.90;;;;;;4952488;28;20576;-63
2023/05/29 04:10:24;;;;;;;4.87;4.07;;;13.10;99.90;;;;;;4956753;28;20260;-64
2023/05/29 04:12:50;;;;;;;7.50;4.27;;;13.20;99.90;;;;;;4950445;28;20193;-63
2023/05/29 04:15:16;;;;;;;7.80;4.43;;;13.20;99.90;;;;;;4952450;28;20206;-63
2023/05/29 04:17:41;;;;;;;5.97;4.43;;;13.20;99.90;;;;;;4955695;28;20201;-63
2023/05/29 04:20:10;;;;;;;5.87;3.80;;;13.10;99.90;;;;;;4956499;28;20203;-63
2023/05/29 04:22:36;;;;;;;7.83;4.00;;;13.20;99.90;;;;;;4952724;28;20222;-62
2023/05/29 04:25:03;;;;;;;5.53;3.40;;;13.30;99.90;;;;;;4956958;28;20288;-63
2023/05/29 04:27:29;;;;;;;7.07;4.20;;;13.30;99.90;;;;;;4935438;28;20688;-63
2023/05/29 04:29:55;;;;;;;5.73;3.97;;;13.40;99.90;;;;;;4953058;28;20390;-63
2023/05/29 04:32:21;;;;;;;9.50;3.50;;;13.40;99.90;;;;;;4960162;28;20281;-62
2023/05/29 04:34:47;;;;;;;6.47;3.63;;;13.40;99.90;;;;;;4958671;28;20550;-63
2023/05/29 04:37:13;;;;;;;5.60;3.40;;;13.40;99.90;;;;;;4957876;28;20210;-63
2023/05/29 04:39:38;;;;;;;7.70;4.03;;;13.30;99.90;;;;;;4955482;28;20213;-62
2023/05/29 04:42:05;;;;;;;5.53;3.90;;;13.40;99.90;;;;;;4961081;28;20205;-63
2023/05/29 04:44:30;;;;;;;6.13;3.63;;;13.40;99.90;;;;;;4954357;28;20281;-64
2023/05/29 04:47:02;;;;;;;5.40;3.67;;;13.50;99.90;;;;;;4960842;28;20300;-64
2023/05/29 04:49:28;;;;;;;7.27;4.07;;;13.50;99.90;;;;;;4956652;28;20610;-63
2023/05/29 04:51:54;;;;;;;5.33;3.63;;;13.50;99.90;;;;;;4956513;28;20194;-63
2023/05/29 04:54:19;;;;;;;6.40;3.77;;;13.50;99.90;;;;;;4961395;28;20209;-63
2023/05/29 04:56:46;;;;;;;7.43;3.70;;;13.60;99.90;;;;;;4950344;28;20213;-63
2023/05/29 04:59:12;;;;;;;8.10;3.80;;;13.70;99.90;;;;;;4961262;28;20287;-63
2023/05/29 05:01:37;;;;;;;5.67;3.97;;;13.70;99.90;;;;;;4961263;28;20213;-63
2023/05/29 05:04:03;;;;;;;7.30;3.93;;;13.80;99.90;;;;;;4957667;28;20266;-64
2023/05/29 05:06:28;;;;;;;4.87;3.47;;;13.90;99.90;;;;;;4959525;28;20225;-63
2023/05/29 05:08:55;;;;;;;4.47;3.67;;;13.80;99.90;;;;;;4960648;28;20264;-63
2023/05/29 05:11:23;;;;;;;7.00;4.33;;;13.80;99.90;;;;;;4961027;28;20280;-63
2023/05/29 05:13:49;;;;;;;5.50;3.60;;;13.80;99.90;;;;;;4960770;28;20865;-64
2023/05/29 05:16:14;;;;;;;5.13;3.53;;;13.90;99.90;;;;;;4961155;28;21090;-63
2023/05/29 05:18:40;;;;;;;4.17;3.13;;;14.00;99.90;;;;;;4960727;28;20197;-63
2023/05/29 05:21:06;;;;;;;3.53;2.80;;;14.20;99.90;;;;;;4958938;28;20280;-64
2023/05/29 05:23:31;;;;;;;4.67;3.00;;;14.20;99.90;;;;;;4957614;28;20229;-65
2023/05/29 05:25:57;;;;;;;5.60;3.40;;;14.20;99.90;;;;;;4956764;28;20220;-63
2023/05/29 05:28:22;;;;;;;4.20;2.87;;;14.30;99.90;;;;;;4955069;28;20673;-64
2023/05/29 05:30:48;;;;;;;7.60;3.50;;;14.40;99.90;;;;;;4956257;28;20567;-63
2023/05/29 05:33:13;;;;;;;3.83;3.00;;;14.30;99.90;;;;;;4959135;28;20197;-63
2023/05/29 05:35:39;;;;;;;4.57;3.40;;;14.40;99.90;;;;;;4958303;28;20544;-63
2023/05/29 05:38:06;;;;;;;3.67;2.40;;;14.50;99.90;;;;;;4954857;28;20205;-63
2023/05/29 05:40:31;;;;;;;4.07;2.87;;;14.60;99.90;;;;;;4955424;28;20836;-63
2023/05/29 05:42:57;;;;;;;4.50;2.77;;;14.60;99.90;;;;;;4954839;28;20751;-62
2023/05/29 05:45:22;;;;;;;3.30;2.67;;;14.60;99.90;;;;;;4959929;28;20201;-62
2023/05/29 05:47:48;;;;;;;6.90;2.70;;;14.60;99.90;;;;;;4955547;28;20191;-63
2023/05/29 05:50:13;;;;;;;2.63;2.33;;;14.60;99.90;;;;;;4953023;28;20205;-62
2023/05/29 05:52:39;;;;;;;3.50;2.50;;;14.80;99.90;;;;;;4947195;28;20203;-63
2023/05/29 05:55:05;;;;;;;7.03;2.40;;;14.80;99.90;;;;;;4950798;28;20198;-63
2023/05/29 05:57:32;;;;;;;2.93;2.60;;;14.90;99.90;;;;;;4950235;28;20280;-63
2023/05/29 05:59:58;;;;;;;3.80;2.27;;;14.90;99.70;;;;;;4950700;28;20209;-65
2023/05/29 06:02:24;;;;;;;2.63;2.23;;;15.00;99.60;;;;;;4948148;28;20213;-64
2023/05/29 06:04:49;;;;;;;4.80;2.83;;;15.10;99.20;;;;;;4953714;28;20198;-63
2023/05/29 06:07:15;;;;;;;3.83;2.10;;;15.10;99.30;;;;;;4949473;28;20849;-63
2023/05/29 06:09:41;;;;;;;4.37;2.30;;;15.20;99.60;;;;;;4949873;28;20618;-63
2023/05/29 06:12:08;;;;;;;4.57;2.70;;;15.30;99.20;;;;;;4949552;28;20232;-63
2023/05/29 06:14:34;;;;;;;2.70;2.50;;;15.40;98.50;;;;;;4949124;28;20202;-63
2023/05/29 06:17:00;;;;;;;3.53;2.23;;;15.40;98.00;;;;;;4952895;28;20207;-63
2023/05/29 06:19:25;;;;;;;4.97;2.80;;;15.60;98.00;;;;;;4948697;28;20193;-63
2023/05/29 06:21:51;;;;;;;3.57;2.63;;;15.50;97.60;;;;;;4949850;28;20532;-63
2023/05/29 06:24:16;;;;;;;3.03;2.20;;;15.50;97.90;;;;;;4947836;28;20710;-64
2023/05/29 06:26:42;;;;;;;5.13;2.50;;;15.50;98.30;;;;;;4949447;28;20228;-63
2023/05/29 06:29:07;;;;;;;2.50;2.27;;;15.60;98.10;;;;;;4949282;28;20189;-63
2023/05/29 06:31:33;;;;;;;4.20;2.40;;;15.70;97.80;;;;;;4949593;28;20778;-63
2023/05/29 06:33:59;;;;;;;5.30;2.43;;;15.80;97.30;;;;;;4948802;28;20695;-63
2023/05/29 06:36:24;;;;;;;2.47;2.00;;;15.90;97.10;;;;;;4949004;28;20206;-63
2023/05/29 06:38:51;;;;;;;4.93;2.10;;;16.10;96.70;;;;;;4949351;28;20879;-63
2023/05/29 06:41:17;;;;;;;2.23;2.00;;;16.20;95.90;;;;;;4949759;28;20265;-63
2023/05/29 06:43:42;;;;;;;3.80;2.80;;;16.20;95.90;;;;;;4949834;28;20210;-63
2023/05/29 06:46:08;;;;;;;4.10;2.37;;;16.20;96.10;;;;;;4949354;28;20308;-63
2023/05/29 06:48:36;;;;;;;3.23;2.03;;;16.20;95.80;;;;;;4949276;28;20217;-63
2023/05/29 06:51:08;;;;;;;4.00;2.40;;;16.20;95.30;;;;;;4947107;28;20199;-64
2023/05/29 06:53:37;;;;;;;3.00;2.17;;;16.40;95.40;;;;;;4949498;28;20670;-63
2023/05/29 06:56:05;;;;;;;3.10;2.10;;;16.40;95.60;;;;;;4950320;28;20207;-62
2023/05/29 06:58:31;;;;;;;1.80;1.70;;;16.40;95.90;;;;;;4943229;28;20206;-64
2023/05/29 07:00:58;;;;;;;2.97;2.43;;;16.50;95.40;;;;;;4940376;28;20209;-65
2023/05/29 07:03:25;;;;;;;4.50;2.70;;;16.60;95.00;;;;;;4939544;28;20206;-64
2023/05/29 07:05:51;;;;;;;3.80;2.37;;;16.70;94.80;;;;;;4940070;28;20682;-65
2023/05/29 07:08:16;;;;;;;2.77;2.20;;;16.70;94.90;;;;;;4943994;28;20205;-66
2023/05/29 07:10:42;;;;;;;2.40;2.20;;;16.80;94.90;;;;;;4941976;28;20252;-65
2023/05/29 07:13:08;;;;;;;2.20;2.00;;;16.90;94.70;;;;;;4940678;28;20202;-63
2023/05/29 07:15:34;;;;;;;2.77;2.07;;;17.00;94.60;;;;;;4942374;28;20234;-64
2023/05/29 07:17:59;;;;;;;2.50;1.90;;;17.00;93.70;;;;;;4940436;28;20210;-64
2023/05/29 07:20:25;;;;;;;4.17;2.80;;;17.20;93.50;;;;;;4941614;28;20194;-64
2023/05/29 07:22:50;;;;;;;3.60;2.40;;;17.20;93.20;;;;;;4941078;28;20223;-64
2023/05/29 07:25:16;;;;;;;3.43;2.17;;;17.30;93.70;;;;;;4938308;28;20214;-63
2023/05/29 07:27:42;;;;;;;4.23;2.40;;;17.40;93.40;;;;;;4940284;28;20245;-64
2023/05/29 07:30:07;;;;;;;2.13;1.87;;;17.30;93.50;;;;;;4922098;28;20198;-66
2023/05/29 07:32:33;;;;;;;2.60;2.23;;;17.30;93.20;;;;;;4939579;28;20910;-66
2023/05/29 07:34:58;;;;;;;2.17;1.77;;;17.30;92.30;;;;;;4939521;28;20201;-63
2023/05/29 07:37:24;;;;;;;12.40;4.77;;;17.40;92.80;;;;;;4939336;28;20257;-79
2023/05/29 07:39:50;;;;;;;2.83;2.40;;;17.50;99.00;;;;;;4941330;28;20272;-70
2023/05/29 07:42:15;;;;;;;2.97;2.77;;;17.30;99.90;;;;;;4940731;28;20207;-65
2023/05/29 07:44:42;;;;;;;3.73;2.20;;;17.00;99.90;;;;;;4936667;28;20200;-67
2023/05/29 07:47:08;;;;;;;2.43;2.03;;;16.80;96.90;;;;;;4944357;28;20685;-66
2023/05/29 07:49:35;;;;;;;4.03;2.30;;;16.70;96.60;;;;;;4942877;28;20197;-65
2023/05/29 07:52:04;;;;;;;2.77;1.60;;;16.60;99.90;;;;;;4941045;28;20256;-70
2023/05/29 07:54:32;;;;;;;3.23;2.17;;;16.60;96.90;;;;;;4938522;28;20229;-69
2023/05/29 07:56:59;;;;;;;2.63;2.23;;;16.70;97.50;;;;;;4942423;28;20195;-70
2023/05/29 07:59:24;;;;;;;7.67;2.40;;;16.70;99.00;;;;;;4942421;28;20209;-70
2023/05/29 08:01:50;;;;;;;5.10;2.53;;;16.70;97.70;;;;;;4942809;28;20210;-71
2023/05/29 08:04:15;;;;;;;2.93;2.27;;;16.60;99.90;;;;;;4940773;28;20580;-70
2023/05/29 08:06:42;;;;;;;1.70;1.60;;;16.40;99.90;;;;;;4942388;28;20217;-70
2023/05/29 08:09:08;;;;;;;2.87;1.97;;;16.30;98.40;;;;;;4933383;28;20699;-70
2023/05/29 08:11:33;;;;;;;2.87;2.47;;;16.50;96.70;;;;;;4936920;28;20219;-70
2023/05/29 08:13:59;;;;;;;2.37;2.17;;;16.50;96.50;;;;;;4949465;28;20197;-73
2023/05/29 08:16:27;;;;;;;2.20;2.03;;;16.40;98.00;;;;;;4942443;28;20388;-70
2023/05/29 08:18:52;;;;;;;5.80;2.43;;;16.50;96.50;;;;;;4938220;28;20298;-72
2023/05/29 08:21:17;;;;;;;4.47;1.83;;;16.80;95.50;;;;;;4944398;28;20383;-74
2023/05/29 08:23:43;;;;;;;2.33;1.90;;;16.90;95.30;;;;;;4942870;28;20643;-71
2023/05/29 08:26:09;;;;;;;2.83;2.57;;;17.10;94.80;;;;;;4925387;29;20242;-76
2023/05/29 08:28:34;;;;;;;2.07;1.87;;;17.20;94.90;;;;;;4942743;28;20233;-69
2023/05/29 08:31:00;;;;;;;2.80;2.40;;;17.30;95.30;;;;;;4937449;28;20236;-70
2023/05/29 08:33:26;;;;;;;2.83;2.17;;;17.30;95.70;;;;;;4942712;28;20316;-74
2023/05/29 08:35:51;;;;;;;2.97;2.73;;;17.20;96.10;;;;;;4942899;28;20727;-71
2023/05/29 08:38:17;;;;;;;4.43;2.83;;;17.20;94.50;;;;;;4942356;28;20257;-73
2023/05/29 08:40:42;;;;;;;4.43;2.70;;;17.20;98.10;;;;;;4940427;28;20616;-71
2023/05/29 08:43:14;;;;;;;3.33;2.20;;;17.20;94.90;;;;;;4943011;28;20203;-70
2023/05/29 08:45:43;;;;;;;2.83;2.17;;;17.10;98.80;;;;;;4937488;28;20217;-70
2023/05/29 08:48:13;;;;;;;3.73;2.67;;;17.00;97.30;;;;;;4944624;28;20203;-70
2023/05/29 08:50:47;;;;;;;4.27;2.50;;;17.50;94.10;;;;;;4941878;28;20209;-71
2023/05/29 08:53:15;;;;;;;2.73;2.50;;;17.80;94.80;;;;;;4944104;28;20295;-72
2023/05/29 08:55:41;;;;;;;2.30;2.10;;;17.80;95.20;;;;;;4941962;28;20232;-69
2023/05/29 08:58:06;;;;;;;3.17;1.97;;;17.90;93.20;;;;;;4943004;28;20206;-70
2023/05/29 09:00:32;;;;;;;8.73;2.60;;;17.90;92.00;;;;;;4950429;28;20227;-70
2023/05/29 09:02:59;;;;;;;2.70;2.50;;;17.90;95.20;;;;;;4939580;28;20195;-71
2023/05/29 09:05:29;;;;;;;2.73;2.10;;;17.90;93.20;;;;;;4939260;28;20214;-72
2023/05/29 09:07:55;;;;;;;6.20;2.07;;;17.90;93.80;;;;;;4941711;28;20208;-71
2023/05/29 09:10:22;;;;;;;5.53;2.80;;;18.00;93.50;;;;;;4936237;28;20195;-74
2023/05/29 09:12:49;;;;;;;2.80;2.43;;;18.20;92.70;;;;;;4946849;28;20304;-71
2023/05/29 09:15:19;;;;;;;2.00;1.80;;;18.10;93.50;;;;;;4944974;28;20805;-71
2023/05/29 09:17:51;;;;;;;3.07;2.13;;;18.20;92.20;;;;;;4947744;28;20225;-70
2023/05/29 09:20:23;;;;;;;4.83;2.80;;;18.60;91.50;;;;;;4945123;28;20223;-71
2023/05/29 09:22:58;;;;;;;4.97;2.43;;;18.70;91.40;;;;;;4954105;28;20228;-71
2023/05/29 09:25:26;;;;;;;5.67;2.67;;;18.70;92.40;;;;;;4947243;28;20241;-75
2023/05/29 09:28:13;;;;;;;2.63;2.30;;;18.80;92.40;;;;;;4954110;28;20207;-72
2023/05/29 09:30:43;;;;;;;3.40;2.87;;;19.00;91.50;;;;;;4942203;28;20227;-72
2023/05/29 09:33:11;;;;;;;2.73;2.07;;;19.10;91.60;;;;;;4947403;28;20650;-73
2023/05/29 09:35:39;;;;;;;5.10;2.03;;;19.20;91.70;;;;;;4950059;28;20201;-73
2023/05/29 09:38:06;;;;;;;5.10;2.03;;;19.30;90.60;;;;;;4958211;28;20195;-74
2023/05/29 09:40:33;;;;;;;3.10;2.43;;;19.30;90.20;;;;;;4946169;28;20740;-71
2023/05/29 09:43:12;;;;;;;2.27;2.13;;;19.50;86.50;;;;;;4933789;28;20200;-71
2023/05/29 09:45:42;;;;;;;5.13;3.47;;;19.70;88.50;;;;;;4926274;29;20254;-71
2023/05/29 09:48:12;;;;;;;4.27;3.17;;;19.70;88.60;;;;;;4940295;28;20635;-71
2023/05/29 09:50:37;;;;;;;2.50;2.30;;;19.70;87.60;;;;;;4941415;28;20229;-70
2023/05/29 09:53:03;;;;;;;3.47;2.60;;;19.70;86.70;;;;;;4926409;28;20684;-71
2023/05/29 09:55:31;;;;;;;3.03;2.50;;;19.70;87.40;;;;;;4945291;28;20213;-70
2023/05/29 09:57:58;;;;;;;2.90;2.70;;;19.70;87.20;;;;;;4950364;28;20284;-73
2023/05/29 10:00:24;;;;;;;4.23;3.10;;;19.80;86.60;;;;;;4954776;28;20358;-73
2023/05/29 10:02:50;;;;;;;4.33;2.37;;;19.90;86.20;;;;;;4953999;28;20219;-70
2023/05/29 10:05:16;;;;;;;3.33;2.53;;;20.00;83.70;;;;;;4954735;28;20215;-71
2023/05/29 10:07:47;;;;;;;2.70;2.33;;;20.00;83.90;;;;;;4959488;28;20957;-70
2023/05/29 10:10:14;;;;;;;3.73;2.40;;;19.90;82.90;;;;;;4958085;28;20574;-70
2023/05/29 10:12:44;;;;;;;3.37;2.50;;;20.00;84.80;;;;;;4953721;28;20235;-70
2023/05/29 10:15:14;;;;;;;2.67;2.20;;;20.10;83.10;;;;;;4959075;28;20294;-70
2023/05/29 10:17:50;;;;;;;4.47;2.97;;;20.30;81.70;;;;;;4950998;28;20217;-71
2023/05/29 10:20:17;;;;;;;3.90;2.50;;;20.30;81.20;;;;;;4951490;28;20732;-71
2023/05/29 10:22:46;;;;;;;2.60;2.40;;;20.40;78.70;;;;;;4946783;28;20235;-70
2023/05/29 10:25:15;;;;;;;4.27;2.77;;;20.50;80.10;;;;;;4945843;28;20641;-71
2023/05/29 10:27:42;;;;;;;3.63;2.30;;;20.50;78.80;;;;;;4948802;28;20224;-75
2023/05/29 10:30:31;;;;;;;4.23;2.60;;;20.50;78.90;;;;;;4947065;28;20214;-71
2023/05/29 10:33:20;;;;;;;2.83;2.17;;;20.80;75.60;;;;;;4944916;28;20219;-70
2023/05/29 10:36:21;;;;;;;2.87;2.27;;;20.80;74.40;;;;;;4939406;28;20778;-70
2023/05/29 10:38:48;;;;;;;3.90;2.20;;;20.80;75.40;;;;;;4942053;28;20679;-69
2023/05/29 10:41:26;;;;;;;4.20;2.57;;;20.70;73.30;;;;;;4931428;29;20205;-70
2023/05/29 10:43:58;;;;;;;2.97;2.60;;;20.80;74.80;;;;;;4942892;28;20212;-71
2023/05/29 10:46:42;;;;;;;2.17;1.97;;;20.90;71.50;;;;;;4950222;28;20224;-73
2023/05/29 10:49:21;;;;;;;2.77;2.20;;;20.90;68.20;;;;;;4929615;28;20204;-72
2023/05/29 10:51:48;;;;;;;3.67;2.13;;;20.90;68.10;;;;;;4945309;28;20227;-73
2023/05/29 10:54:14;;;;;;;2.40;2.17;;;21.10;69.60;;;;;;4945596;28;20304;-71
2023/05/29 10:56:41;;;;;;;5.13;2.40;;;21.10;69.60;;;;;;4949566;28;20215;-71
2023/05/29 10:59:07;;;;;;;2.30;2.10;;;21.00;72.20;;;;;;4949806;28;20297;-70
2023/05/29 11:01:34;;;;;;;3.37;2.40;;;21.10;73.00;;;;;;4951731;28;20205;-71
2023/05/29 11:04:26;;;;;;;4.17;3.57;;;21.00;72.60;;;;;;4946589;28;20638;-71
2023/05/29 11:06:52;;;;;;;20.43;14.27;;;20.90;71.70;;;;;;4946733;28;20221;-71
2023/05/29 11:09:29;;;;;;;7.33;5.70;;;21.00;70.90;;;;;;4949711;28;20655;-71
2023/05/29 11:12:35;;;;;;;4.93;3.60;;;21.30;70.20;;;;;;4948737;28;20404;-73
2023/05/29 11:15:10;;;;;;;6.07;3.37;;;21.60;82.00;;;;;;4946015;28;20204;-78
2023/05/29 11:17:38;;;;;;;12.00;5.83;;;21.40;80.20;;;;;;4948568;28;20284;-70
2023/05/29 11:20:10;;;;;;;3.23;2.90;;;21.20;84.10;;;;;;4949375;28;20718;-72
2023/05/29 11:22:59;;;;;;;3.00;2.70;;;20.90;75.50;;;;;;4945473;28;20244;-73
2023/05/29 11:25:26;;;;;;;4.93;2.60;;;20.40;80.80;;;;;;4947494;28;20260;-71
2023/05/29 11:27:54;;;;;;;3.07;2.77;;;20.20;79.80;;;;;;4939242;28;20304;-71
2023/05/29 11:30:21;;;;;;;4.20;2.20;;;20.30;76.70;;;;;;4950114;28;21069;-75
2023/05/29 11:32:47;;;;;;;4.67;2.50;;;20.60;78.50;;;;;;4948487;28;20625;-73
2023/05/29 11:35:14;;;;;;;3.50;2.93;;;20.80;73.90;;;;;;4949185;28;20226;-75
2023/05/29 11:37:45;;;;;;;4.90;2.70;;;20.90;78.80;;;;;;4929823;28;20205;-76
2023/05/29 11:40:11;;;;;;;4.97;2.50;;;21.20;76.60;;;;;;4953173;28;20292;-75
2023/05/29 11:42:44;;;;;;;6.30;2.90;;;21.60;68.90;;;;;;4957651;28;20197;-72
2023/05/29 11:45:14;;;;;;;5.30;3.20;;;21.90;70.70;;;;;;4956108;28;20209;-72
2023/05/29 11:47:57;;;;;;;3.40;2.73;;;22.10;74.90;;;;;;4957368;28;20247;-72
2023/05/29 11:50:25;;;;;;;4.90;2.50;;;22.30;70.80;;;;;;4955130;28;20241;-72
2023/05/29 11:52:54;;;;;;;7.10;3.57;;;22.20;70.30;;;;;;4956938;28;20639;-70
2023/05/29 11:55:20;;;;;;;2.50;2.30;;;22.00;71.80;;;;;;4952337;28;21088;-71
2023/05/29 11:57:47;;;;;;;7.40;2.63;;;21.90;68.80;;;;;;4944791;28;20216;-70
2023/05/29 12:00:18;;;;;;;3.37;2.43;;;22.20;68.90;;;;;;4957079;28;20205;-73
2023/05/29 12:02:46;;;;;;;1.90;1.77;;;22.40;70.30;;;;;;4956671;28;20209;-72
2023/05/29 12:05:14;;;;;;;2.78;2.35;;;22.80;66.40;;;;;;4953280;28;20225;-71
2023/05/29 12:07:56;;;;;;;4.10;2.30;;;23.30;69.30;;;;;;4947140;28;20225;-73
2023/05/29 12:10:22;;;;;;;5.57;2.63;;;23.50;66.90;;;;;;4943200;28;20209;-71
2023/05/29 12:12:56;;;;;;;3.65;2.33;;;23.70;64.30;;;;;;4946961;28;20551;-73
2023/05/29 12:15:22;;;;;;;2.60;2.40;;;23.80;64.60;;;;;;4946236;28;20206;-76
2023/05/29 12:17:50;;;;;;;3.63;2.38;;;23.90;62.00;;;;;;4930638;28;20508;-74
2023/05/29 12:20:16;;;;;;;3.65;2.75;;;23.70;63.80;;;;;;4947828;28;20230;-74
2023/05/29 12:22:43;;;;;;;3.92;2.65;;;23.70;61.90;;;;;;4947749;28;20765;-74
2023/05/29 12:25:11;;;;;;;3.30;2.78;;;23.10;61.80;;;;;;4943475;28;20209;-75
2023/05/29 12:27:42;;;;;;;3.03;2.63;;;22.90;63.90;;;;;;4945903;28;20213;-74
2023/05/29 12:30:11;;;;;;;4.68;2.72;;;22.80;61.70;;;;;;4946580;28;20226;-76
2023/05/29 12:32:38;;;;;;;3.83;2.40;;;22.90;62.70;;;;;;4933172;28;20292;-73
2023/05/29 12:35:24;;;;;;;2.80;2.33;;;23.30;65.40;;;;;;4950600;28;20564;-74
2023/05/29 12:37:54;;;;;;;5.55;2.65;;;23.60;61.30;;;;;;4944693;28;20201;-73
2023/05/29 12:40:21;;;;;;;4.28;2.33;;;23.70;59.40;;;;;;4928712;28;20665;-74
2023/05/29 12:42:48;;;;;;;5.45;2.13;;;23.90;63.10;;;;;;4931018;28;20257;-75
2023/05/29 12:45:14;;;;;;;3.53;2.53;;;24.00;60.60;;;;;;4948550;28;20197;-75
2023/05/29 12:47:53;;;;;;;3.58;2.40;;;24.20;57.70;;;;;;4946005;28;20225;-74